createdAt,value
2022-09-23T00:01:21.747Z,95.05
2022-09-23T00:03:50.535Z,94.95
2022-09-23T00:06:22.738Z,95.13
2022-09-23T00:08:50.701Z,95.75
2022-09-23T00:11:20.657Z,95.02
2022-09-23T00:13:49.536Z,94.93
2022-09-23T00:16:19.979Z,94.72
2022-09-23T00:18:49.746Z,95.51
2022-09-23T00:21:17.823Z,96.31
2022-09-23T00:23:45.419Z,96.37
2022-09-23T00:26:15.917Z,97.13
2022-09-23T00:28:43.776Z,96.41
2022-09-23T00:31:14.003Z,96.55
2022-09-23T00:33:42.078Z,96.38
2022-09-23T00:36:11.371Z,97.27
2022-09-23T00:38:39.147Z,98.64
2022-09-23T00:41:06.802Z,99.09
2022-09-23T00:43:44.802Z,99.63
2022-09-23T00:46:16.790Z,100.00
2022-09-23T00:48:44.575Z,100.00
2022-09-23T00:51:15.061Z,100.00
2022-09-23T00:53:44.801Z,99.99
2022-09-23T00:56:12.530Z,99.95
2022-09-23T00:58:40.991Z,100.00
2022-09-23T01:01:08.693Z,100.00
2022-09-23T01:03:36.354Z,100.00
2022-09-23T01:06:04.163Z,100.00
2022-09-23T01:08:33.244Z,100.00
2022-09-23T01:11:06.870Z,100.00
2022-09-23T01:13:51.348Z,100.00
2022-09-23T01:16:39.316Z,100.00
2022-09-23T01:19:39.938Z,100.00
2022-09-23T01:22:36.030Z,100.00
2022-09-23T01:25:19.269Z,100.00
2022-09-23T01:27:58.016Z,100.00
2022-09-23T01:30:46.575Z,100.00
2022-09-23T01:33:24.628Z,100.00
2022-09-23T01:36:14.730Z,100.00
2022-09-23T01:38:45.971Z,100.00
2022-09-23T01:41:24.230Z,100.00
2022-09-23T01:44:06.289Z,100.00
2022-09-23T01:46:48.004Z,100.00
2022-09-23T01:49:20.613Z,100.00
2022-09-23T01:52:12.859Z,100.00
2022-09-23T01:54:45.535Z,100.00
2022-09-23T01:57:19.032Z,100.00
2022-09-23T01:59:49.340Z,100.00
2022-09-23T02:02:26.758Z,100.00
2022-09-23T02:05:02.516Z,100.00
2022-09-23T02:07:50.434Z,100.00
2022-09-23T02:10:44.894Z,100.00
2022-09-23T02:13:45.308Z,100.00
2022-09-23T02:16:29.482Z,100.00
2022-09-23T02:19:09.912Z,100.00
2022-09-23T02:21:41.262Z,100.00
2022-09-23T02:24:34.779Z,100.00
2022-09-23T02:27:13.204Z,100.00
2022-09-23T02:29:57.523Z,100.00
2022-09-23T02:33:02.864Z,100.00
2022-09-23T02:35:44.346Z,100.00
2022-09-23T02:38:27.673Z,100.00
2022-09-23T02:40:58.858Z,100.00
2022-09-23T02:43:35.652Z,100.00
2022-09-23T02:46:04.140Z,100.00
2022-09-23T02:48:36.028Z,100.00
2022-09-23T02:51:04.504Z,100.00
2022-09-23T02:53:34.783Z,100.00
2022-09-23T02:56:03.172Z,100.00
2022-09-23T02:58:30.901Z,100.00
2022-09-23T03:01:13.247Z,100.00
2022-09-23T03:03:55.108Z,100.00
2022-09-23T03:06:51.851Z,100.00
2022-09-23T03:09:50.676Z,100.00
2022-09-23T03:12:53.041Z,100.00
2022-09-23T03:18:40.423Z,100.00
2022-09-23T03:21:11.650Z,100.00
2022-09-23T03:23:40.086Z,100.00
2022-09-23T03:26:12.445Z,100.00
2022-09-23T03:28:42.103Z,100.00
2022-09-23T03:31:11.450Z,100.00
2022-09-23T03:33:39.593Z,100.00
2022-09-23T03:36:27.756Z,100.00
2022-09-23T03:39:07.080Z,100.00
2022-09-23T03:41:41.946Z,100.00
2022-09-23T03:44:09.748Z,100.00
2022-09-23T03:46:37.386Z,100.00
2022-09-23T03:49:22.752Z,100.00
2022-09-23T03:51:50.574Z,100.00
2022-09-23T03:54:20.449Z,100.00
2022-09-23T03:56:48.583Z,100.00
2022-09-23T03:59:16.445Z,100.00
2022-09-23T04:01:44.209Z,100.00
2022-09-23T04:04:11.845Z,100.00
2022-09-23T04:06:39.600Z,100.00
2022-09-23T04:09:07.848Z,100.00
2022-09-23T04:11:35.876Z,100.00
2022-09-23T04:14:04.514Z,100.00
2022-09-23T04:16:33.434Z,100.00
2022-09-23T04:19:01.350Z,100.00
2022-09-23T04:21:31.518Z,100.00
2022-09-23T04:23:59.207Z,100.00
2022-09-23T04:26:26.976Z,100.00
2022-09-23T04:28:55.163Z,100.00
2022-09-23T04:31:25.462Z,100.00
2022-09-23T04:33:53.682Z,100.00
2022-09-23T04:36:21.798Z,100.00
2022-09-23T04:38:49.857Z,100.00
2022-09-23T04:41:18.287Z,100.00
2022-09-23T04:43:46.055Z,100.00
2022-09-23T04:46:14.982Z,100.00
2022-09-23T04:48:42.779Z,100.00
2022-09-23T04:51:15.123Z,100.00
2022-09-23T04:53:43.955Z,100.00
2022-09-23T04:56:14.753Z,100.00
2022-09-23T04:58:43.539Z,100.00
2022-09-23T05:01:12.643Z,100.00
2022-09-23T05:03:41.085Z,99.39
2022-09-23T05:06:09.108Z,98.75
2022-09-23T05:08:39.686Z,97.16
2022-09-23T05:11:07.703Z,96.18
2022-09-23T05:13:35.658Z,95.99
2022-09-23T05:16:05.475Z,95.31
2022-09-23T05:18:44.047Z,94.57
2022-09-23T05:21:14.371Z,95.21
2022-09-23T05:23:42.538Z,94.39
2022-09-23T05:26:11.983Z,93.53
2022-09-23T05:28:40.250Z,92.86
2022-09-23T05:31:19.749Z,92.02
2022-09-23T05:33:49.947Z,91.79
2022-09-23T05:36:18.876Z,91.73
2022-09-23T05:38:46.626Z,91.61
2022-09-23T05:41:14.330Z,91.44
2022-09-23T05:43:43.166Z,90.94
2022-09-23T05:46:12.905Z,90.91
2022-09-23T05:48:46.334Z,89.71
2022-09-23T05:51:18.593Z,89.18
2022-09-23T05:53:47.243Z,88.72
2022-09-23T05:56:18.605Z,88.75
2022-09-23T05:58:47.314Z,88.34
2022-09-23T06:01:18.214Z,88.48
2022-09-23T06:03:49.992Z,86.83
2022-09-23T06:06:22.069Z,85.85
2022-09-23T06:08:50.194Z,85.94
2022-09-23T06:11:18.316Z,85.08
2022-09-23T06:13:46.075Z,84.82
2022-09-23T06:16:14.930Z,84.37
2022-09-23T06:18:43.483Z,83.71
2022-09-23T06:21:13.505Z,82.81
2022-09-23T06:23:43.299Z,80.87
2022-09-23T06:26:14.029Z,80.19
2022-09-23T06:28:43.163Z,80.00
2022-09-23T06:31:13.766Z,78.64
2022-09-23T06:33:43.211Z,77.85
2022-09-23T06:36:11.558Z,78.03
2022-09-23T06:38:41.232Z,78.22
2022-09-23T06:41:09.224Z,75.06
2022-09-23T06:43:37.269Z,74.51
2022-09-23T06:46:05.493Z,73.83
2022-09-23T06:48:41.719Z,72.22
2022-09-23T06:51:19.201Z,72.50
2022-09-23T06:53:48.507Z,70.84
2022-09-23T06:56:17.920Z,70.36
2022-09-23T06:58:46.401Z,69.85
2022-09-23T07:01:17.235Z,68.41
2022-09-23T07:03:45.932Z,66.95
2022-09-23T07:06:13.698Z,68.81
2022-09-23T07:08:43.789Z,68.87
2022-09-23T07:11:13.509Z,68.52
2022-09-23T07:13:44.386Z,66.89
2022-09-23T07:16:14.105Z,65.92
2022-09-23T07:18:45.211Z,64.86
2022-09-23T07:21:15.595Z,65.90
2022-09-23T07:23:44.353Z,66.36
2022-09-23T07:26:12.832Z,66.31
2022-09-23T07:28:40.620Z,65.35
2022-09-23T07:31:17.032Z,65.74
2022-09-23T07:33:45.652Z,66.85
2022-09-23T07:36:17.613Z,67.53
2022-09-23T07:38:46.376Z,68.63
2022-09-23T07:41:17.530Z,68.08
2022-09-23T07:43:49.153Z,68.71
2022-09-23T07:46:17.611Z,66.84
2022-09-23T07:48:46.866Z,65.29
2022-09-23T07:51:25.866Z,63.76
2022-09-23T07:53:54.290Z,62.80
2022-09-23T07:56:24.921Z,62.54
2022-09-23T07:59:01.915Z,62.17
2022-09-23T08:01:31.799Z,63.10
2022-09-23T08:04:01.333Z,62.78
2022-09-23T08:06:30.448Z,64.26
2022-09-23T08:08:58.963Z,62.50
2022-09-23T08:11:28.326Z,63.33
2022-09-23T08:13:57.444Z,60.16
2022-09-23T08:16:25.318Z,61.36
2022-09-23T08:18:53.212Z,62.68
2022-09-23T08:21:21.475Z,61.64
2022-09-23T08:23:52.940Z,61.26
2022-09-23T08:26:22.458Z,58.97
2022-09-23T08:28:54.021Z,59.33
2022-09-23T08:31:22.664Z,58.04
2022-09-23T08:33:57.811Z,58.96
2022-09-23T08:36:28.839Z,60.04
2022-09-23T08:38:57.610Z,61.34
2022-09-23T08:41:38.419Z,60.97
2022-09-23T08:44:27.490Z,61.29
2022-09-23T08:47:13.743Z,61.44
2022-09-23T08:50:05.915Z,60.06
2022-09-23T08:53:01.588Z,60.12
2022-09-23T08:55:39.964Z,59.96
2022-09-23T08:58:26.533Z,58.81
2022-09-23T09:01:19.343Z,58.08
2022-09-23T09:04:02.661Z,57.00
2022-09-23T09:06:53.100Z,57.30
2022-09-23T09:09:37.040Z,57.58
2022-09-23T09:12:11.649Z,53.52
2022-09-23T09:15:07.117Z,54.49
2022-09-23T09:17:39.972Z,54.39
2022-09-23T09:20:23.435Z,55.57
2022-09-23T09:23:01.113Z,55.32
2022-09-23T09:25:50.333Z,54.84
2022-09-23T09:28:28.463Z,54.22
2022-09-23T09:30:58.215Z,53.54
2022-09-23T09:33:35.412Z,54.26
2022-09-23T09:36:31.125Z,55.71
2022-09-23T09:38:59.620Z,55.10
2022-09-23T09:41:31.615Z,55.02
2022-09-23T09:44:01.110Z,55.91
2022-09-23T09:46:36.675Z,55.52
2022-09-23T09:49:40.536Z,55.90
2022-09-23T09:52:24.340Z,53.10
2022-09-23T09:54:53.084Z,53.07
2022-09-23T09:57:39.430Z,53.86
2022-09-23T10:00:22.052Z,52.75
2022-09-23T10:02:56.751Z,54.18
2022-09-23T10:05:47.371Z,52.90
2022-09-23T10:08:27.054Z,52.11
2022-09-23T10:11:01.215Z,52.36
2022-09-23T10:13:31.236Z,51.89
2022-09-23T10:16:04.197Z,52.49
2022-09-23T10:18:35.553Z,51.34
2022-09-23T10:21:07.306Z,51.64
2022-09-23T10:23:35.440Z,51.61
2022-09-23T10:26:05.698Z,52.43
2022-09-23T10:29:01.403Z,52.91
2022-09-23T10:31:33.016Z,53.03
2022-09-23T10:34:02.126Z,53.93
2022-09-23T10:36:33.009Z,53.85
2022-09-23T10:39:23.489Z,52.44
2022-09-23T10:42:39.267Z,52.27
2022-09-23T10:45:45.079Z,51.26
2022-09-23T10:48:19.732Z,51.11
2022-09-23T10:50:51.832Z,49.71
2022-09-23T10:53:34.514Z,48.73
2022-09-23T10:56:17.426Z,48.55
2022-09-23T10:59:04.383Z,49.31
2022-09-23T11:01:49.916Z,48.74
2022-09-23T11:04:55.403Z,49.27
2022-09-23T11:07:37.269Z,50.82
2022-09-23T11:10:46.906Z,51.82
2022-09-23T11:13:54.194Z,52.37
2022-09-23T11:16:41.074Z,52.56
2022-09-23T11:19:45.920Z,51.95
2022-09-23T11:22:16.830Z,52.18
2022-09-23T11:24:58.519Z,50.09
2022-09-23T11:27:45.177Z,49.46
2022-09-23T11:30:14.373Z,48.94
2022-09-23T11:33:14.673Z,48.07
2022-09-23T11:35:58.093Z,46.93
2022-09-23T11:38:36.106Z,46.37
2022-09-23T11:41:30.972Z,46.69
2022-09-23T11:44:29.306Z,45.88
2022-09-23T11:47:27.893Z,45.62
2022-09-23T11:49:58.318Z,46.16
2022-09-23T11:52:45.561Z,46.54
2022-09-23T11:55:21.970Z,47.17
2022-09-23T11:58:02.162Z,45.30
2022-09-23T12:00:36.239Z,43.42
2022-09-23T12:03:12.338Z,42.99
2022-09-23T12:05:44.741Z,42.46
2022-09-23T12:08:43.185Z,41.05
2022-09-23T12:11:19.919Z,40.36
2022-09-23T12:14:12.346Z,39.45
2022-09-23T12:17:09.187Z,40.17
2022-09-23T12:19:48.872Z,38.80
2022-09-23T12:22:27.142Z,38.93
2022-09-23T12:24:58.500Z,40.40
2022-09-23T12:27:39.297Z,40.42
2022-09-23T12:30:18.196Z,41.54
2022-09-23T12:32:46.748Z,42.94
2022-09-23T12:35:25.264Z,43.64
2022-09-23T12:37:53.041Z,44.10
2022-09-23T12:40:44.053Z,43.91
2022-09-23T12:43:21.383Z,41.40
2022-09-23T12:45:49.685Z,39.00
2022-09-23T12:48:27.129Z,38.10
2022-09-23T12:51:04.226Z,37.85
2022-09-23T12:53:35.218Z,37.18
2022-09-23T12:56:18.505Z,37.60
2022-09-23T12:58:46.238Z,37.82
2022-09-23T13:01:24.488Z,36.30
2022-09-23T13:04:12.776Z,36.84
2022-09-23T13:06:42.569Z,37.09
2022-09-23T13:09:13.774Z,37.40
2022-09-23T13:11:43.430Z,37.59
2022-09-23T13:14:13.614Z,37.78
2022-09-23T13:16:46.104Z,37.09
2022-09-23T13:19:25.799Z,38.12
2022-09-23T13:21:53.489Z,37.44
2022-09-23T13:24:34.554Z,37.66
2022-09-23T13:27:02.322Z,38.56
2022-09-23T13:29:57.818Z,37.95
2022-09-23T13:32:32.138Z,38.32
2022-09-23T13:35:15.908Z,37.69
2022-09-23T13:37:47.679Z,38.70
2022-09-23T13:40:24.071Z,39.40
2022-09-23T13:42:59.306Z,39.44
2022-09-23T13:45:28.261Z,39.81
2022-09-23T13:48:06.132Z,40.79
2022-09-23T13:50:35.275Z,42.44
2022-09-23T13:53:09.373Z,41.78
2022-09-23T13:55:38.905Z,41.67
2022-09-23T13:58:20.314Z,42.14
2022-09-23T14:00:48.381Z,43.31
2022-09-23T14:03:36.512Z,42.21
2022-09-23T14:06:11.451Z,43.27
2022-09-23T14:08:40.539Z,44.64
2022-09-23T14:11:08.604Z,46.04
2022-09-23T14:13:41.644Z,45.95
2022-09-23T14:16:10.990Z,45.23
2022-09-23T14:18:55.658Z,45.54
2022-09-23T14:21:29.580Z,45.11
2022-09-23T14:23:57.539Z,46.01
2022-09-23T14:26:25.492Z,47.57
2022-09-23T14:28:53.206Z,48.78
2022-09-23T14:31:20.905Z,49.65
2022-09-23T14:33:48.645Z,49.93
2022-09-23T14:36:35.774Z,50.60
2022-09-23T14:39:05.674Z,52.96
2022-09-23T14:41:38.803Z,53.90
2022-09-23T14:44:07.564Z,54.48
2022-09-23T14:46:38.719Z,55.40
2022-09-23T14:49:12.379Z,55.78
2022-09-23T14:51:54.638Z,56.40
2022-09-23T14:54:39.235Z,57.14
2022-09-23T14:57:26.146Z,57.46
2022-09-23T14:59:59.849Z,58.12
2022-09-23T15:02:31.686Z,58.32
2022-09-23T15:05:15.910Z,58.93
2022-09-23T15:07:47.447Z,59.54
2022-09-23T15:10:34.422Z,60.79
2022-09-23T15:13:14.711Z,61.55
2022-09-23T15:15:43.102Z,62.01
2022-09-23T15:18:27.223Z,62.67
2022-09-23T15:21:10.502Z,65.32
2022-09-23T15:23:47.476Z,65.09
2022-09-23T15:26:22.132Z,67.08
2022-09-23T15:28:50.275Z,69.16
2022-09-23T15:31:19.243Z,69.65
2022-09-23T15:33:47.957Z,71.03
2022-09-23T15:36:18.070Z,72.88
2022-09-23T15:38:46.166Z,73.29
2022-09-23T15:41:14.584Z,74.80
2022-09-23T15:43:42.708Z,75.33
2022-09-23T15:46:23.429Z,76.07
2022-09-23T15:49:00.238Z,75.78
2022-09-23T15:51:28.753Z,77.19
2022-09-23T15:53:59.194Z,76.61
2022-09-23T15:56:27.319Z,78.27
2022-09-23T15:58:55.283Z,78.08
2022-09-23T16:01:30.801Z,78.35
2022-09-23T16:04:01.477Z,77.94
2022-09-23T16:06:29.653Z,78.19
2022-09-23T16:08:57.577Z,78.51
2022-09-23T16:11:27.412Z,78.13
2022-09-23T16:13:55.109Z,78.73
2022-09-23T16:16:22.962Z,78.18
2022-09-23T16:18:53.788Z,78.71
2022-09-23T16:21:25.409Z,78.11
2022-09-23T16:23:53.640Z,78.94
2022-09-23T16:26:34.834Z,80.46
2022-09-23T16:29:03.019Z,80.14
2022-09-23T16:31:31.495Z,79.15
2022-09-23T16:34:02.699Z,79.89
2022-09-23T16:36:39.671Z,80.01
2022-09-23T16:39:10.982Z,79.89
2022-09-23T16:41:38.855Z,78.76
2022-09-23T16:44:09.462Z,78.17
2022-09-23T16:46:38.205Z,78.24
2022-09-23T16:49:05.998Z,78.51
2022-09-23T16:51:38.668Z,79.93
2022-09-23T16:54:10.813Z,80.73
2022-09-23T16:56:44.499Z,81.37
2022-09-23T16:59:16.245Z,82.47
2022-09-23T17:02:02.708Z,82.81
2022-09-23T17:04:31.699Z,83.19
2022-09-23T17:06:59.330Z,84.11
2022-09-23T17:09:28.465Z,83.24
2022-09-23T17:12:12.260Z,84.30
2022-09-23T17:14:40.143Z,86.50
2022-09-23T17:17:09.396Z,84.78
2022-09-23T17:19:38.368Z,84.75
2022-09-23T17:22:06.141Z,83.42
2022-09-23T17:24:35.276Z,81.78
2022-09-23T17:27:03.599Z,81.25
2022-09-23T17:29:31.577Z,80.83
2022-09-23T17:31:59.493Z,79.98
2022-09-23T17:34:29.052Z,79.67
2022-09-23T17:36:56.771Z,78.82
2022-09-23T17:39:24.437Z,77.91
2022-09-23T17:41:53.052Z,77.67
2022-09-23T17:44:20.690Z,77.29
2022-09-23T17:46:49.372Z,77.38
2022-09-23T17:49:18.332Z,77.08
2022-09-23T17:51:45.942Z,76.83
2022-09-23T17:54:15.190Z,76.03
2022-09-23T17:56:42.937Z,75.73
2022-09-23T17:59:14.970Z,75.09
2022-09-23T18:01:43.355Z,74.79
2022-09-23T18:04:11.092Z,75.37
2022-09-23T18:06:39.985Z,74.92
2022-09-23T18:09:08.766Z,76.19
2022-09-23T18:11:39.229Z,75.44
2022-09-23T18:14:12.461Z,75.15
2022-09-23T18:16:40.809Z,74.94
2022-09-23T18:19:11.246Z,74.92
2022-09-23T18:21:40.908Z,75.03
2022-09-23T18:26:59.877Z,77.35
2022-09-23T18:29:28.268Z,77.79
2022-09-23T18:31:55.968Z,78.49
2022-09-23T18:34:24.475Z,78.91
2022-09-23T18:36:54.371Z,78.45
2022-09-23T18:39:22.177Z,79.24
2022-09-23T18:41:50.457Z,78.80
2022-09-23T18:44:18.910Z,78.70
2022-09-23T18:46:46.698Z,77.32
2022-09-23T18:49:32.797Z,77.99
2022-09-23T18:52:00.504Z,77.28
2022-09-23T18:54:28.519Z,77.36
2022-09-23T18:56:56.788Z,78.24
2022-09-23T18:59:28.054Z,78.40
2022-09-23T19:01:56.230Z,79.86
2022-09-23T19:04:24.936Z,80.55
2022-09-23T19:06:54.071Z,80.98
2022-09-23T19:09:22.249Z,81.31
2022-09-23T19:11:52.368Z,81.29
2022-09-23T19:14:20.096Z,81.32
2022-09-23T19:16:49.407Z,81.47
2022-09-23T19:19:17.259Z,83.05
2022-09-23T19:21:45.034Z,84.79
2022-09-23T19:24:15.992Z,84.98
2022-09-23T19:26:44.089Z,84.74
2022-09-23T19:29:16.799Z,84.44
2022-09-23T19:31:44.630Z,84.84
2022-09-23T19:34:14.086Z,84.22
2022-09-23T19:36:43.570Z,84.45
2022-09-23T19:39:22.661Z,84.44
2022-09-23T19:41:50.951Z,84.90
2022-09-23T19:44:20.340Z,85.63
2022-09-23T19:46:55.151Z,85.41
2022-09-23T19:49:24.992Z,84.87
2022-09-23T19:51:55.735Z,84.80
2022-09-23T19:54:24.693Z,84.99
2022-09-23T19:56:52.374Z,84.30
2022-09-23T19:59:20.137Z,83.57
2022-09-23T20:01:48.499Z,83.27
2022-09-23T20:04:16.837Z,83.27
2022-09-23T20:06:46.207Z,82.55
2022-09-23T20:09:14.551Z,82.08
2022-09-23T20:11:43.216Z,82.33
2022-09-23T20:14:11.051Z,81.72
2022-09-23T20:16:40.562Z,82.87
2022-09-23T20:19:09.328Z,81.73
2022-09-23T20:21:37.175Z,82.50
2022-09-23T20:24:06.649Z,82.22
2022-09-23T20:26:52.864Z,80.64
2022-09-23T20:29:20.668Z,79.59
2022-09-23T20:31:48.340Z,78.06
2022-09-23T20:34:17.030Z,77.52
2022-09-23T20:36:44.737Z,77.41
2022-09-23T20:39:13.190Z,77.47
2022-09-23T20:41:40.835Z,78.33
2022-09-23T20:44:12.734Z,77.63
2022-09-23T20:46:47.460Z,77.21
2022-09-23T20:49:16.810Z,77.58
2022-09-23T20:51:44.514Z,79.02
2022-09-23T20:54:12.383Z,80.29
2022-09-23T20:56:40.052Z,81.47
2022-09-23T20:59:09.543Z,81.86
2022-09-23T21:01:37.407Z,82.95
2022-09-23T21:04:05.965Z,83.50
2022-09-23T21:06:35.951Z,85.40
2022-09-23T21:09:04.471Z,86.71
2022-09-23T21:11:32.708Z,86.84
2022-09-23T21:14:01.933Z,86.76
2022-09-23T21:16:30.001Z,87.06
2022-09-23T21:18:57.970Z,87.98
2022-09-23T21:21:25.808Z,88.82
2022-09-23T21:23:53.515Z,88.44
2022-09-23T21:26:23.484Z,89.56
2022-09-23T21:28:53.641Z,89.74
2022-09-23T21:31:23.482Z,89.70
2022-09-23T21:34:02.050Z,90.22
2022-09-23T21:36:30.983Z,89.76
2022-09-23T21:39:01.680Z,89.81
2022-09-23T21:41:29.563Z,90.32
2022-09-23T21:43:58.178Z,90.92
2022-09-23T21:46:26.384Z,91.27
2022-09-23T21:48:55.291Z,91.86
2022-09-23T21:51:27.297Z,92.10
2022-09-23T21:53:57.045Z,91.89
2022-09-23T21:56:27.200Z,91.78
2022-09-23T21:58:55.738Z,92.52
2022-09-23T22:01:25.368Z,92.89
2022-09-23T22:03:54.720Z,92.16
2022-09-23T22:06:24.244Z,92.72
2022-09-23T22:08:59.233Z,92.39
2022-09-23T22:11:46.752Z,92.53
2022-09-23T22:14:15.212Z,92.88
2022-09-23T22:16:42.992Z,92.64
2022-09-23T22:19:11.153Z,92.14
2022-09-23T22:21:40.415Z,92.07
2022-09-23T22:24:09.275Z,91.70
2022-09-23T22:26:39.868Z,92.01
2022-09-23T22:29:26.904Z,91.85
2022-09-23T22:32:13.099Z,91.99
2022-09-23T22:34:51.581Z,91.54
2022-09-23T22:37:21.829Z,90.95
2022-09-23T22:39:49.593Z,91.53
2022-09-23T22:42:17.273Z,91.61
2022-09-23T22:44:46.125Z,91.93
2022-09-23T22:47:13.822Z,90.88
2022-09-23T22:49:42.258Z,90.36
2022-09-23T22:52:11.517Z,89.68
2022-09-23T22:54:39.261Z,89.51
2022-09-23T22:57:07.594Z,90.05
2022-09-23T22:59:35.730Z,89.63
2022-09-23T23:02:07.900Z,90.32
2022-09-23T23:04:36.691Z,89.54
2022-09-23T23:07:06.123Z,89.69
2022-09-23T23:09:34.172Z,89.76
2022-09-23T23:12:02.818Z,89.30
2022-09-23T23:14:31.513Z,90.75
2022-09-23T23:16:59.673Z,90.85
2022-09-23T23:19:27.559Z,91.74
2022-09-23T23:21:55.242Z,91.04
2022-09-23T23:24:23.667Z,91.73
2022-09-23T23:26:51.576Z,90.87
2022-09-23T23:29:20.363Z,90.50
2022-09-23T23:31:48.589Z,91.25
2022-09-23T23:34:17.675Z,91.27
2022-09-23T23:36:46.557Z,90.71
2022-09-23T23:39:14.827Z,91.63
2022-09-23T23:41:42.656Z,91.87
2022-09-23T23:44:12.112Z,90.86
2022-09-23T23:46:39.923Z,90.89
2022-09-23T23:49:08.657Z,90.87
2022-09-23T23:51:36.925Z,92.38
2022-09-23T23:54:04.751Z,92.23
2022-09-23T23:56:32.365Z,91.83
2022-09-23T23:59:02.540Z,92.66
